createdAt,value
2018-04-25T00:01:36.961Z,7.40
2018-04-25T00:04:05.379Z,7.33
2018-04-25T00:06:39.620Z,8.07
2018-04-25T00:09:07.225Z,7.13
2018-04-25T00:11:35.562Z,7.90
2018-04-25T00:14:03.173Z,7.40
2018-04-25T00:16:31.495Z,8.20
2018-04-25T00:18:59.146Z,7.93
2018-04-25T00:21:26.691Z,8.70
2018-04-25T00:23:54.274Z,8.40
2018-04-25T00:26:21.810Z,8.10
2018-04-25T00:28:49.421Z,8.20
2018-04-25T00:31:16.998Z,8.50
2018-04-25T00:33:45.357Z,7.50
2018-04-25T00:36:12.937Z,7.47
2018-04-25T00:38:41.307Z,7.97
2018-04-25T00:41:09.662Z,8.10
2018-04-25T00:43:37.258Z,7.73
2018-04-25T00:46:05.626Z,8.23
2018-04-25T00:48:33.995Z,7.13
2018-04-25T00:51:01.580Z,7.73
2018-04-25T00:53:29.198Z,7.50
2018-04-25T00:55:56.794Z,7.90
2018-04-25T00:58:24.373Z,7.33
2018-04-25T01:00:51.938Z,6.50
2018-04-25T01:03:19.498Z,6.93
2018-04-25T01:05:47.114Z,7.40
2018-04-25T01:08:14.714Z,7.10
2018-04-25T01:10:42.322Z,7.43
2018-04-25T01:13:09.894Z,7.07
2018-04-25T01:15:37.521Z,7.20
2018-04-25T01:18:05.073Z,6.40
2018-04-25T01:20:32.643Z,7.40
2018-04-25T01:23:00.272Z,7.17
2018-04-25T01:25:32.484Z,7.67
2018-04-25T01:28:10.759Z,7.50
2018-04-25T01:30:55.029Z,7.23
2018-04-25T01:33:23.610Z,7.87
2018-04-25T01:38:48.388Z,7.60
2018-04-25T01:41:15.945Z,7.67
2018-04-25T01:43:50.697Z,8.00
2018-04-25T01:46:19.182Z,8.50
2018-04-25T01:52:01.834Z,7.97
2018-04-25T01:54:41.226Z,9.20
2018-04-25T01:57:21.118Z,8.80
2018-04-25T02:00:00.696Z,8.33
2018-04-25T02:02:27.749Z,8.30
2018-04-25T02:04:56.053Z,9.37
2018-04-25T02:07:23.576Z,8.73
2018-04-25T02:09:51.120Z,8.43
2018-04-25T02:12:18.691Z,8.87
2018-04-25T02:15:04.392Z,8.97
2018-04-25T02:17:32.765Z,9.10
2018-04-25T02:20:01.129Z,8.60
2018-04-25T02:22:28.744Z,8.73
2018-04-25T02:24:57.138Z,9.17
2018-04-25T02:27:24.718Z,8.80
2018-04-25T02:29:52.346Z,8.83
2018-04-25T02:32:19.955Z,8.77
2018-04-25T02:34:47.607Z,9.20
2018-04-25T02:37:15.208Z,9.03
2018-04-25T02:39:42.763Z,9.20
2018-04-25T02:42:10.385Z,8.87
2018-04-25T02:44:37.995Z,8.37
2018-04-25T02:47:05.618Z,8.20
2018-04-25T02:49:33.999Z,8.60
2018-04-25T02:52:01.639Z,8.77
2018-04-25T02:54:29.249Z,8.57
2018-04-25T02:56:56.873Z,9.10
2018-04-25T02:59:24.513Z,8.17
2018-04-25T03:01:52.114Z,8.13
2018-04-25T03:04:20.511Z,8.23
2018-04-25T03:06:48.077Z,9.40
2018-04-25T03:09:15.693Z,8.50
2018-04-25T03:11:43.277Z,9.37
2018-04-25T03:14:11.621Z,8.63
2018-04-25T03:16:39.184Z,8.97
2018-04-25T03:19:06.782Z,9.40
2018-04-25T03:21:34.376Z,8.47
2018-04-25T03:24:01.943Z,9.13
2018-04-25T03:26:29.539Z,9.40
2018-04-25T03:28:57.842Z,8.90
2018-04-25T03:31:25.441Z,8.97
2018-04-25T03:33:53.050Z,9.17
2018-04-25T03:36:21.389Z,8.30
2018-04-25T03:39:08.273Z,7.97
2018-04-25T03:41:35.884Z,7.50
2018-04-25T03:44:03.506Z,6.43
2018-04-25T03:46:31.119Z,7.53
2018-04-25T03:48:59.469Z,6.47
2018-04-25T03:51:27.076Z,7.37
2018-04-25T03:53:54.621Z,7.00
2018-04-25T03:56:22.219Z,7.20
2018-04-25T03:58:49.877Z,6.73
2018-04-25T04:01:17.434Z,6.70
2018-04-25T04:03:45.090Z,8.03
2018-04-25T04:06:12.685Z,7.90
2018-04-25T04:08:40.315Z,8.80
2018-04-25T04:11:07.872Z,7.17
2018-04-25T04:13:35.419Z,7.67
2018-04-25T04:16:03.048Z,7.90
2018-04-25T04:18:31.415Z,8.57
2018-04-25T04:20:59.023Z,8.67
2018-04-25T04:23:26.647Z,8.53
2018-04-25T04:25:54.997Z,7.70
2018-04-25T04:28:22.561Z,7.70
2018-04-25T04:30:50.157Z,7.40
2018-04-25T04:33:18.545Z,6.60
2018-04-25T04:35:46.149Z,5.83
2018-04-25T04:38:13.748Z,5.93
2018-04-25T04:40:42.131Z,6.73
2018-04-25T04:43:10.526Z,6.33
2018-04-25T04:45:39.073Z,6.03
2018-04-25T04:48:06.678Z,7.13
2018-04-25T04:50:34.299Z,6.87
2018-04-25T04:53:01.929Z,6.23
2018-04-25T04:55:29.543Z,8.03
2018-04-25T04:57:57.911Z,6.70
2018-04-25T05:00:26.305Z,6.10
2018-04-25T05:02:54.659Z,6.20
2018-04-25T05:05:22.241Z,5.93
2018-04-25T05:07:49.853Z,6.13
2018-04-25T05:10:17.424Z,5.93
2018-04-25T05:12:45.021Z,5.43
2018-04-25T05:15:12.629Z,5.40
2018-04-25T05:17:40.265Z,5.17
2018-04-25T05:20:07.863Z,5.80
2018-04-25T05:22:35.490Z,6.20
2018-04-25T05:25:03.121Z,5.73
2018-04-25T05:27:30.705Z,7.30
2018-04-25T05:29:58.347Z,7.40
2018-04-25T05:32:25.992Z,5.77
2018-04-25T05:34:54.329Z,7.30
2018-04-25T05:37:21.956Z,6.33
2018-04-25T05:39:49.524Z,5.50
2018-04-25T05:42:17.065Z,5.23
2018-04-25T05:44:44.635Z,5.93
2018-04-25T05:47:12.245Z,5.57
2018-04-25T05:49:39.850Z,6.10
2018-04-25T05:52:07.422Z,5.20
2018-04-25T05:54:35.047Z,6.20
2018-04-25T05:57:03.378Z,6.50
2018-04-25T05:59:30.993Z,6.70
2018-04-25T06:01:59.417Z,6.93
2018-04-25T06:04:44.294Z,6.77
2018-04-25T06:07:11.897Z,6.50
2018-04-25T06:09:40.232Z,6.57
2018-04-25T06:12:07.859Z,7.07
2018-04-25T06:14:35.477Z,6.47
2018-04-25T06:17:03.148Z,6.77
2018-04-25T06:19:31.541Z,6.40
2018-04-25T06:21:59.177Z,6.47
2018-04-25T06:24:26.857Z,6.67
2018-04-25T06:26:55.223Z,7.63
2018-04-25T06:29:23.565Z,6.27
2018-04-25T06:31:51.176Z,7.00
2018-04-25T06:34:19.563Z,7.37
2018-04-25T06:36:47.114Z,6.60
2018-04-25T06:39:15.475Z,8.07
2018-04-25T06:41:43.104Z,6.87
2018-04-25T06:44:10.694Z,6.73
2018-04-25T06:46:38.334Z,6.50
2018-04-25T06:49:05.902Z,6.43
2018-04-25T06:51:33.505Z,7.60
2018-04-25T06:54:01.109Z,6.47
2018-04-25T06:56:28.697Z,7.10
2018-04-25T06:58:56.293Z,6.70
2018-04-25T07:01:23.875Z,6.53
2018-04-25T07:03:51.523Z,6.33
2018-04-25T07:06:19.129Z,6.93
2018-04-25T07:08:46.777Z,6.20
2018-04-25T07:11:14.387Z,6.03
2018-04-25T07:13:41.995Z,7.10
2018-04-25T07:16:09.606Z,6.20
2018-04-25T07:18:38.043Z,6.57
2018-04-25T07:21:05.646Z,6.70
2018-04-25T07:23:33.235Z,7.20
2018-04-25T07:26:00.850Z,6.20
2018-04-25T07:28:28.444Z,6.33
2018-04-25T07:30:56.073Z,6.10
2018-04-25T07:33:24.404Z,7.03
2018-04-25T07:35:52.059Z,6.70
2018-04-25T07:38:19.683Z,6.30
2018-04-25T07:40:47.314Z,5.63
2018-04-25T07:43:14.941Z,6.33
2018-04-25T07:45:42.537Z,6.40
2018-04-25T07:48:10.161Z,6.30
2018-04-25T07:50:37.745Z,6.20
2018-04-25T07:53:05.371Z,5.97
2018-04-25T07:55:32.963Z,7.03
2018-04-25T07:58:00.563Z,6.07
2018-04-25T08:00:28.923Z,6.93
2018-04-25T08:02:56.571Z,7.00
2018-04-25T08:05:24.135Z,5.90
2018-04-25T08:07:51.733Z,5.70
2018-04-25T08:10:19.324Z,6.37
2018-04-25T08:12:58.837Z,6.10
2018-04-25T08:15:38.086Z,5.80
2018-04-25T08:18:17.570Z,6.07
2018-04-25T08:23:52.579Z,5.97
2018-04-25T08:26:20.058Z,5.87
2018-04-25T08:28:47.625Z,6.60
2018-04-25T08:31:15.241Z,5.93
2018-04-25T08:33:42.841Z,6.13
2018-04-25T08:36:10.469Z,6.03
2018-04-25T08:38:38.061Z,6.10
2018-04-25T08:41:05.647Z,6.30
2018-04-25T08:43:33.261Z,6.50
2018-04-25T08:46:00.877Z,6.13
2018-04-25T08:48:28.435Z,6.20
2018-04-25T08:50:56.802Z,6.27
2018-04-25T08:53:24.395Z,5.43
2018-04-25T08:55:51.962Z,5.30
2018-04-25T08:58:19.564Z,5.53
2018-04-25T09:00:47.162Z,6.20
2018-04-25T09:03:15.587Z,5.50
2018-04-25T09:05:43.275Z,6.10
2018-04-25T09:08:10.783Z,5.70
2018-04-25T09:10:38.330Z,5.20
2018-04-25T09:13:05.906Z,5.97
2018-04-25T09:15:33.560Z,5.03
2018-04-25T09:18:01.164Z,5.47
2018-04-25T09:20:28.796Z,6.00
2018-04-25T09:22:56.341Z,5.63
2018-04-25T09:25:23.978Z,5.50
2018-04-25T09:27:52.317Z,5.07
2018-04-25T09:30:19.897Z,5.43
2018-04-25T09:32:47.453Z,4.90
2018-04-25T09:35:15.078Z,5.93
2018-04-25T09:37:42.674Z,5.83
2018-04-25T09:40:15.229Z,6.00
2018-04-25T09:42:42.803Z,5.93
2018-04-25T09:45:10.365Z,5.67
2018-04-25T09:47:37.968Z,5.60
2018-04-25T09:50:05.569Z,5.00
2018-04-25T09:52:33.159Z,4.77
2018-04-25T09:55:00.737Z,5.07
2018-04-25T09:57:29.128Z,5.03
2018-04-25T09:59:56.749Z,4.50
2018-04-25T10:02:30.039Z,5.50
2018-04-25T10:04:57.684Z,4.70
2018-04-25T10:07:25.270Z,4.50
2018-04-25T10:09:52.857Z,4.83
2018-04-25T10:12:20.451Z,6.10
2018-04-25T10:14:48.013Z,4.80
2018-04-25T10:17:15.747Z,4.60
2018-04-25T10:19:43.224Z,5.03
2018-04-25T10:22:10.870Z,5.00
2018-04-25T10:24:38.468Z,4.80
2018-04-25T10:27:06.071Z,5.03
2018-04-25T10:29:34.424Z,6.20
2018-04-25T10:32:02.032Z,5.00
2018-04-25T10:34:29.681Z,4.83
2018-04-25T10:36:58.026Z,4.50
2018-04-25T10:39:25.575Z,5.10
2018-04-25T10:41:53.205Z,4.80
2018-04-25T10:44:20.823Z,4.80
2018-04-25T10:46:48.313Z,4.40
2018-04-25T10:49:15.861Z,3.77
2018-04-25T10:51:43.462Z,4.30
2018-04-25T10:54:11.037Z,3.80
2018-04-25T10:56:38.672Z,4.47
2018-04-25T10:59:06.210Z,4.93
2018-04-25T11:01:33.785Z,4.23
2018-04-25T11:04:01.400Z,4.40
2018-04-25T11:06:29.764Z,4.60
2018-04-25T11:08:57.391Z,4.50
2018-04-25T11:11:24.997Z,4.27
2018-04-25T11:13:53.345Z,4.50
2018-04-25T11:16:20.945Z,4.20
2018-04-25T11:18:49.337Z,4.43
2018-04-25T11:21:16.990Z,3.77
2018-04-25T11:23:45.310Z,4.00
2018-04-25T11:26:12.900Z,3.67
2018-04-25T11:28:40.479Z,4.03
2018-04-25T11:31:08.813Z,3.73
2018-04-25T11:33:36.401Z,3.80
2018-04-25T11:36:03.951Z,4.43
2018-04-25T11:38:31.558Z,3.60
2018-04-25T11:40:59.151Z,3.70
2018-04-25T11:43:26.694Z,4.10
2018-04-25T11:45:54.288Z,4.10
2018-04-25T11:48:21.852Z,3.70
2018-04-25T11:50:49.450Z,4.30
2018-04-25T11:53:17.033Z,3.97
2018-04-25T11:55:44.631Z,4.10
2018-04-25T11:58:12.231Z,4.20
2018-04-25T12:00:39.824Z,3.70
2018-04-25T12:03:07.473Z,3.83
2018-04-25T12:05:35.094Z,4.00
2018-04-25T12:08:03.488Z,3.63
2018-04-25T12:10:31.079Z,3.80
2018-04-25T12:12:58.659Z,3.83
2018-04-25T12:15:26.286Z,4.07
2018-04-25T12:17:53.833Z,4.20
2018-04-25T12:20:21.437Z,3.80
2018-04-25T12:22:49.005Z,3.90
2018-04-25T12:25:16.547Z,3.77
2018-04-25T12:27:44.150Z,4.50
2018-04-25T12:30:12.511Z,3.67
2018-04-25T12:32:40.074Z,4.23
2018-04-25T12:35:07.643Z,4.33
2018-04-25T12:37:35.241Z,4.30
2018-04-25T12:40:02.850Z,4.00
2018-04-25T12:42:30.481Z,3.60
2018-04-25T12:44:58.077Z,3.87
2018-04-25T12:50:23.850Z,4.30
2018-04-25T12:52:51.426Z,3.63
2018-04-25T12:55:19.007Z,3.50
2018-04-25T12:57:46.619Z,3.40
2018-04-25T13:00:14.941Z,3.60
2018-04-25T13:02:42.521Z,3.97
2018-04-25T13:05:10.081Z,3.30
2018-04-25T13:07:37.705Z,3.50
2018-04-25T13:10:05.265Z,4.20
2018-04-25T13:12:33.672Z,3.40
2018-04-25T13:15:01.353Z,3.50
2018-04-25T13:17:28.888Z,3.73
2018-04-25T13:19:56.456Z,3.90
2018-04-25T13:22:24.043Z,3.50
2018-04-25T13:24:52.378Z,3.50
2018-04-25T13:27:19.982Z,3.63
2018-04-25T13:29:48.390Z,3.53
2018-04-25T13:32:15.938Z,4.00
2018-04-25T13:34:44.604Z,4.10
2018-04-25T13:37:12.226Z,3.50
2018-04-25T13:40:13.462Z,3.60
2018-04-25T13:42:41.096Z,3.90
2018-04-25T13:45:08.663Z,3.90
2018-04-25T13:47:36.265Z,3.70
2018-04-25T13:50:03.828Z,4.00
2018-04-25T13:52:31.506Z,3.90
2018-04-25T13:54:59.083Z,4.37
2018-04-25T13:57:27.501Z,4.00
2018-04-25T13:59:55.081Z,3.67
2018-04-25T14:02:22.672Z,3.50
2018-04-25T14:04:51.044Z,4.00
2018-04-25T14:07:19.368Z,4.07
2018-04-25T14:09:46.951Z,3.70
2018-04-25T14:12:14.523Z,3.87
2018-04-25T14:14:42.081Z,3.87
2018-04-25T14:17:09.644Z,3.73
2018-04-25T14:19:37.217Z,4.23
2018-04-25T14:22:04.834Z,4.60
2018-04-25T14:24:32.416Z,4.80
2018-04-25T14:27:00.020Z,4.20
2018-04-25T14:29:28.401Z,4.27
2018-04-25T14:31:55.996Z,3.90
2018-04-25T14:34:23.625Z,4.10
2018-04-25T14:36:51.193Z,4.23
2018-04-25T14:39:18.811Z,4.43
2018-04-25T14:41:46.429Z,4.37
2018-04-25T14:44:14.035Z,4.03
2018-04-25T14:46:46.930Z,4.20
2018-04-25T14:49:28.072Z,4.20
2018-04-25T14:51:59.279Z,4.90
2018-04-25T14:54:26.924Z,5.20
2018-04-25T14:56:55.340Z,4.50
2018-04-25T14:59:26.566Z,4.57
2018-04-25T15:05:06.572Z,4.60
2018-04-25T15:07:51.467Z,4.33
2018-04-25T15:10:19.830Z,5.10
2018-04-25T15:12:47.447Z,4.30
2018-04-25T15:15:15.048Z,4.67
2018-04-25T15:17:42.649Z,4.30
2018-04-25T15:20:10.257Z,4.67
2018-04-25T15:22:37.838Z,4.90
2018-04-25T15:25:06.387Z,4.77
2018-04-25T15:27:34.012Z,5.10
2018-04-25T15:30:01.585Z,4.43
2018-04-25T15:32:29.141Z,5.00
2018-04-25T15:34:56.759Z,4.90
2018-04-25T15:37:29.505Z,5.20
2018-04-25T15:39:57.137Z,4.90
2018-04-25T15:42:24.719Z,4.70
2018-04-25T15:44:56.733Z,4.83
2018-04-25T15:47:30.549Z,4.90
2018-04-25T15:49:58.860Z,4.40
2018-04-25T15:52:26.497Z,4.73
2018-04-25T15:54:54.067Z,4.30
2018-04-25T15:57:21.653Z,4.30
2018-04-25T15:59:49.217Z,4.30
2018-04-25T16:02:16.838Z,4.37
2018-04-25T16:04:45.179Z,4.87
2018-04-25T16:07:12.750Z,4.53
2018-04-25T16:09:40.318Z,4.23
2018-04-25T16:12:08.734Z,4.23
2018-04-25T16:14:37.093Z,7.50
2018-04-25T16:17:04.741Z,4.13
2018-04-25T16:19:32.326Z,4.33
2018-04-25T16:21:59.965Z,4.20
2018-04-25T16:24:27.626Z,4.97
2018-04-25T16:26:56.016Z,4.10
2018-04-25T16:29:23.576Z,4.23
2018-04-25T16:31:51.134Z,4.00
2018-04-25T16:34:28.745Z,3.93
2018-04-25T16:36:56.440Z,4.20
2018-04-25T16:39:24.070Z,4.20
2018-04-25T16:41:51.653Z,4.30
2018-04-25T16:44:20.544Z,4.00
2018-04-25T16:46:48.397Z,3.43
2018-04-25T16:49:17.215Z,3.67
2018-04-25T16:51:44.846Z,4.20
2018-04-25T16:54:13.250Z,3.70
2018-04-25T16:56:41.146Z,3.63
2018-04-25T16:59:08.714Z,3.77
2018-04-25T17:01:37.089Z,3.40
2018-04-25T17:04:05.499Z,4.20
2018-04-25T17:06:33.798Z,3.50
2018-04-25T17:09:01.391Z,3.90
2018-04-25T17:11:28.962Z,3.80
2018-04-25T17:13:56.594Z,3.30
2018-04-25T17:16:24.228Z,3.40
2018-04-25T17:18:51.829Z,3.50
2018-04-25T17:21:19.406Z,3.63
2018-04-25T17:23:47.763Z,4.07
2018-04-25T17:26:15.342Z,3.77
2018-04-25T17:28:43.720Z,3.33
2018-04-25T17:31:12.055Z,3.63
2018-04-25T17:33:39.630Z,3.67
2018-04-25T17:36:26.270Z,3.80
2018-04-25T17:38:54.612Z,3.50
2018-04-25T17:41:22.179Z,3.73
2018-04-25T17:43:49.756Z,3.63
2018-04-25T17:46:17.377Z,3.50
2018-04-25T17:48:44.962Z,3.70
2018-04-25T17:51:12.516Z,4.53
2018-04-25T17:53:40.105Z,3.67
2018-04-25T17:56:08.479Z,3.77
2018-04-25T17:58:36.859Z,3.67
2018-04-25T18:01:05.185Z,3.73
2018-04-25T18:03:32.776Z,3.40
2018-04-25T18:06:08.206Z,3.93
2018-04-25T18:08:37.849Z,4.00
2018-04-25T18:11:06.248Z,3.70
2018-04-25T18:13:33.841Z,3.93
2018-04-25T18:16:01.467Z,3.50
2018-04-25T18:18:29.039Z,3.80
2018-04-25T18:21:09.296Z,3.60
2018-04-25T18:23:49.100Z,3.83
2018-04-25T18:26:16.726Z,3.50
2018-04-25T18:28:44.595Z,4.30
2018-04-25T18:31:18.769Z,3.77
2018-04-25T18:33:53.397Z,3.57
2018-04-25T18:36:26.551Z,4.07
2018-04-25T18:39:06.029Z,3.77
2018-04-25T18:41:33.610Z,3.77
2018-04-25T18:44:17.203Z,4.03
2018-04-25T18:46:45.607Z,4.63
2018-04-25T18:49:13.190Z,3.93
2018-04-25T18:51:40.837Z,4.20
2018-04-25T18:54:08.453Z,4.10
2018-04-25T18:56:36.076Z,3.40
2018-04-25T18:59:03.728Z,4.30
2018-04-25T19:01:31.340Z,3.83
2018-04-25T19:03:59.712Z,4.37
2018-04-25T19:06:29.308Z,4.00
2018-04-25T19:08:56.938Z,3.90
2018-04-25T19:11:24.548Z,3.60
2018-04-25T19:14:01.484Z,4.27
2018-04-25T19:16:29.071Z,4.20
2018-04-25T19:18:56.676Z,4.30
2018-04-25T19:21:24.293Z,4.50
2018-04-25T19:23:51.881Z,4.20
2018-04-25T19:26:19.490Z,4.80
2018-04-25T19:34:41.271Z,3.83
2018-04-25T19:37:13.364Z,4.27
2018-04-25T19:39:41.737Z,4.77
2018-04-25T19:42:10.137Z,4.40
2018-04-25T19:44:37.754Z,4.03
2018-04-25T19:47:05.354Z,4.43
2018-04-25T19:49:32.993Z,4.40
2018-04-25T19:52:03.282Z,3.80
2018-04-25T19:54:30.961Z,4.37
2018-04-25T19:56:58.616Z,4.07
2018-04-25T19:59:26.186Z,4.00
2018-04-25T20:01:53.787Z,4.10
2018-04-25T20:04:21.376Z,4.07
2018-04-25T20:06:49.030Z,4.10
2018-04-25T20:09:16.582Z,4.17
2018-04-25T20:11:44.196Z,4.10
2018-04-25T20:14:11.815Z,4.17
2018-04-25T20:16:39.423Z,4.70
2018-04-25T20:19:07.082Z,4.30
2018-04-25T20:21:35.488Z,4.17
2018-04-25T20:24:03.077Z,4.23
2018-04-25T20:26:30.673Z,4.97
2018-04-25T20:28:58.229Z,4.30
2018-04-25T20:31:25.984Z,4.10
2018-04-25T20:33:53.576Z,4.30
2018-04-25T20:36:22.047Z,4.77
2018-04-25T20:38:49.598Z,4.20
2018-04-25T20:41:17.221Z,4.00
2018-04-25T20:43:44.806Z,4.63
2018-04-25T20:46:12.466Z,4.80
2018-04-25T20:48:40.097Z,4.60
2018-04-25T20:51:07.690Z,4.50
2018-04-25T20:53:35.310Z,4.67
2018-04-25T20:56:02.918Z,4.40
2018-04-25T20:58:30.563Z,4.23
2018-04-25T21:00:58.155Z,3.73
2018-04-25T21:03:26.538Z,3.30
2018-04-25T21:05:54.937Z,2.93
2018-04-25T21:08:22.542Z,2.90
2018-04-25T21:10:50.149Z,2.63
2018-04-25T21:13:17.774Z,2.33
2018-04-25T21:15:45.354Z,2.77
2018-04-25T21:18:13.721Z,2.60
2018-04-25T21:20:41.334Z,2.50
2018-04-25T21:23:08.919Z,2.10
2018-04-25T21:25:36.545Z,2.53
2018-04-25T21:28:04.189Z,2.30
2018-04-25T21:30:31.829Z,2.40
2018-04-25T21:32:59.418Z,2.17
2018-04-25T21:35:27.041Z,2.13
2018-04-25T21:37:54.663Z,2.20
2018-04-25T21:40:22.279Z,2.70
2018-04-25T21:42:50.633Z,2.43
2018-04-25T21:45:18.245Z,1.90
2018-04-25T21:47:45.805Z,2.40
2018-04-25T21:50:13.428Z,2.07
2018-04-25T21:52:41.862Z,2.17
2018-04-25T21:55:09.437Z,2.30
2018-04-25T21:57:37.055Z,2.40
2018-04-25T22:00:04.626Z,2.10
2018-04-25T22:02:32.251Z,2.30
2018-04-25T22:05:00.634Z,2.50
2018-04-25T22:07:28.999Z,2.30
2018-04-25T22:09:56.624Z,2.57
2018-04-25T22:12:24.248Z,2.50
2018-04-25T22:14:51.820Z,2.17
2018-04-25T22:17:19.386Z,2.30
2018-04-25T22:19:47.759Z,2.40
2018-04-25T22:22:15.325Z,2.30
2018-04-25T22:24:42.894Z,2.17
2018-04-25T22:27:10.452Z,2.47
2018-04-25T22:29:38.042Z,2.23
2018-04-25T22:32:05.661Z,2.37
2018-04-25T22:34:33.209Z,2.33
2018-04-25T22:42:46.957Z,2.10
2018-04-25T22:45:14.598Z,2.00
2018-04-25T22:47:42.214Z,2.43
2018-04-25T22:50:09.793Z,2.00
2018-04-25T22:52:37.386Z,2.13
2018-04-25T22:55:04.973Z,2.07
2018-04-25T22:57:33.358Z,2.20
2018-04-25T23:00:00.973Z,2.20
2018-04-25T23:02:28.578Z,1.97
2018-04-25T23:04:56.222Z,2.40
2018-04-25T23:07:23.831Z,2.30
2018-04-25T23:09:51.433Z,1.80
2018-04-25T23:12:19.038Z,2.23
2018-04-25T23:14:46.598Z,2.10
2018-04-25T23:17:14.253Z,2.30
2018-04-25T23:19:41.878Z,2.30
2018-04-25T23:22:10.248Z,2.00
2018-04-25T23:24:37.831Z,2.00
2018-04-25T23:27:06.186Z,2.37
2018-04-25T23:29:33.814Z,2.10
2018-04-25T23:32:01.397Z,2.60
2018-04-25T23:34:29.017Z,3.00
2018-04-25T23:36:56.622Z,3.07
2018-04-25T23:39:24.231Z,3.40
2018-04-25T23:41:51.836Z,3.27
2018-04-25T23:44:19.443Z,2.70
2018-04-25T23:46:47.054Z,2.83
2018-04-25T23:49:14.638Z,2.73
2018-04-25T23:51:43.036Z,3.40
2018-04-25T23:54:10.647Z,3.07
2018-04-25T23:56:38.288Z,2.97
2018-04-25T23:59:05.841Z,3.40
